Dolphin — WTD6974 — position and weather

sailwx.info

Track history (hours):
 
Tides and Currents Weather Stations Pressure Air Temp Water Temp Dewpoint Dewpoint Depression Visibility Wind Speed Wind Dir Waves Ship Positions

Dolphin

Owner: PENN MARITIME INC, Seattle, WA. More information available from US FCC via Universal Licensing System and Coast Guard Vessel Documentation Center.

Last reported at 2015-Sep-02 21:33 UTC. Time now 2015-Sep-02 21:51 UTC.
Position N 31°59' W 080°41'.

Length 41 m; draft 6.9 m.

Type: Towing. MMSI: 366920980.

Date/timePositionNaut miles runAvg speedWind from/ knotsBaromVisibWave heightAir tempDewpointWater temp
2015-Sep-02 21:33N 31°59' W 080°41'3 2.4
2015-Sep-02 20:22N 31°58' W 080°38'326 9.1
2015-Sep-01 08:32N 26°35' W 079°50'1010.6
2015-Sep-01 07:33N 26°24' W 079°51'1110.7
2015-Sep-01 06:33N 26°14' W 079°53'1010.3
2015-Sep-01 05:33N 26°04' W 079°56'10 9.6
2015-Sep-01 04:33N 25°55' W 080°01'9 8.5
2015-Sep-01 03:33N 25°47' W 080°04'7 6.6
2015-Sep-01 02:33N 25°41' W 080°02'10 9.7
2015-Sep-01 01:33N 25°31' W 079°60'  
Track history (hours):
 
Tides and Currents Weather Stations Pressure Air Temp Water Temp Dewpoint Dewpoint Depression Visibility Wind Speed Wind Dir Waves Ship Positions

Dolphin

Owner: PENN MARITIME INC, Seattle, WA. More information available from US FCC via Universal Licensing System and Coast Guard Vessel Documentation Center.

Last reported at 2015-Sep-02 21:33 UTC. Time now 2015-Sep-02 21:51 UTC.
Position N 31°59' W 080°41'.

Length 41 m; draft 6.9 m.

Type: Towing. MMSI: 366920980.

Date/timePositionNaut miles runAvg speedWind from/ knotsBaromVisibWave heightAir tempDewpointWater temp
2015-Sep-02 21:33N 31°59' W 080°41'3 2.4
2015-Sep-02 20:22N 31°58' W 080°38'326 9.1
2015-Sep-01 08:32N 26°35' W 079°50'1010.6
2015-Sep-01 07:33N 26°24' W 079°51'1110.7
2015-Sep-01 06:33N 26°14' W 079°53'1010.3
2015-Sep-01 05:33N 26°04' W 079°56'10 9.6
2015-Sep-01 04:33N 25°55' W 080°01'9 8.5
2015-Sep-01 03:33N 25°47' W 080°04'7 6.6
2015-Sep-01 02:33N 25°41' W 080°02'10 9.7
2015-Sep-01 01:33N 25°31' W 079°60'  

Dump ship's entire track history